createdAt,value
2019-03-10T00:00:29.272Z,1.20
2019-03-10T00:02:57.926Z,1.27
2019-03-10T00:05:26.488Z,1.30
2019-03-10T00:07:55.214Z,1.27
2019-03-10T00:10:23.922Z,1.17
2019-03-10T00:12:52.583Z,1.50
2019-03-10T00:15:21.216Z,1.20
2019-03-10T00:17:49.768Z,1.63
2019-03-10T00:20:18.361Z,1.70
2019-03-10T00:22:47.038Z,1.43
2019-03-10T00:25:15.764Z,1.23
2019-03-10T00:27:44.390Z,1.10
2019-03-10T00:30:15.655Z,1.27
2019-03-10T00:32:44.281Z,1.30
2019-03-10T00:35:13.178Z,1.50
2019-03-10T00:37:41.916Z,1.20
2019-03-10T00:40:39.943Z,1.40
2019-03-10T00:43:43.467Z,1.30
2019-03-10T00:46:48.322Z,1.40
2019-03-10T00:49:53.334Z,1.27
2019-03-10T00:52:33.542Z,1.50
2019-03-10T00:55:02.109Z,1.10
2019-03-10T00:57:30.971Z,1.03
2019-03-10T01:00:00.655Z,1.20
2019-03-10T01:02:29.850Z,1.33
2019-03-10T01:04:58.467Z,1.30
2019-03-10T01:07:27.215Z,1.07
2019-03-10T01:09:55.809Z,1.50
2019-03-10T01:12:24.534Z,1.30
2019-03-10T01:14:53.191Z,1.07
2019-03-10T01:17:22.186Z,1.40
2019-03-10T01:19:51.018Z,1.10
2019-03-10T01:22:19.950Z,1.50
2019-03-10T01:24:48.530Z,1.10
2019-03-10T01:27:17.079Z,1.40
2019-03-10T01:29:45.662Z,1.20
2019-03-10T01:32:33.794Z,1.97
2019-03-10T01:35:14.319Z,1.47
2019-03-10T01:37:42.873Z,1.20
2019-03-10T01:40:11.531Z,1.37
2019-03-10T01:42:40.158Z,1.40
2019-03-10T01:45:11.780Z,1.33
2019-03-10T01:47:40.339Z,1.50
2019-03-10T01:50:11.761Z,1.23
2019-03-10T01:52:40.307Z,1.20
2019-03-10T01:55:10.927Z,1.43
2019-03-10T01:57:39.654Z,1.30
2019-03-10T02:00:11.665Z,1.50
2019-03-10T02:02:40.342Z,1.57
2019-03-10T02:05:08.994Z,1.40
2019-03-10T02:07:37.553Z,1.63
2019-03-10T02:10:09.346Z,1.40
2019-03-10T02:12:37.962Z,1.60
2019-03-10T02:15:09.886Z,1.60
2019-03-10T02:17:38.449Z,1.47
2019-03-10T02:20:17.950Z,1.47
2019-03-10T02:22:46.599Z,2.03
2019-03-10T02:25:15.268Z,1.47
2019-03-10T02:27:43.828Z,1.90
2019-03-10T02:30:15.172Z,1.77
2019-03-10T02:32:43.720Z,1.93
2019-03-10T02:35:12.301Z,1.80
2019-03-10T02:37:40.851Z,1.77
2019-03-10T02:40:09.777Z,1.83
2019-03-10T02:42:38.388Z,2.07
2019-03-10T02:45:08.752Z,2.13
2019-03-10T02:47:37.367Z,1.90
2019-03-10T02:50:08.516Z,2.07
2019-03-10T02:52:37.138Z,1.80
2019-03-10T02:55:07.787Z,2.27
2019-03-10T02:57:36.424Z,2.40
2019-03-10T03:00:10.737Z,2.17
2019-03-10T03:02:39.325Z,2.30
2019-03-10T03:05:09.717Z,2.10
2019-03-10T03:07:38.296Z,2.30
2019-03-10T03:10:09.759Z,2.60
2019-03-10T03:12:38.356Z,2.47
2019-03-10T03:15:08.851Z,2.60
2019-03-10T03:17:37.557Z,2.47
2019-03-10T03:20:09.519Z,2.03
2019-03-10T03:22:38.101Z,2.50
2019-03-10T03:25:09.472Z,2.50
2019-03-10T03:27:38.054Z,2.47
2019-03-10T03:30:09.672Z,2.03
2019-03-10T03:32:38.253Z,2.50
2019-03-10T03:35:32.332Z,2.53
2019-03-10T03:38:00.983Z,2.80
2019-03-10T03:40:29.539Z,2.40
2019-03-10T03:42:58.138Z,2.60
2019-03-10T03:45:26.690Z,2.40
2019-03-10T03:47:55.271Z,2.63
2019-03-10T03:50:23.839Z,2.60
2019-03-10T03:52:52.432Z,2.60
2019-03-10T03:55:20.995Z,2.47
2019-03-10T03:57:49.583Z,2.77
2019-03-10T04:00:18.217Z,2.40
2019-03-10T04:02:46.825Z,2.50
2019-03-10T04:05:15.358Z,2.20
2019-03-10T04:07:44.017Z,2.33
2019-03-10T04:10:12.709Z,2.47
2019-03-10T04:12:41.309Z,2.33
2019-03-10T04:15:09.944Z,2.60
2019-03-10T04:17:38.512Z,2.43
2019-03-10T04:20:09.217Z,2.63
2019-03-10T04:22:37.800Z,2.67
2019-03-10T04:25:07.701Z,2.50
2019-03-10T04:27:36.286Z,2.40
2019-03-10T04:30:06.971Z,2.73
2019-03-10T04:32:35.620Z,2.63
2019-03-10T04:35:05.423Z,2.40
2019-03-10T04:37:34.017Z,2.77
2019-03-10T04:40:02.738Z,2.77
2019-03-10T04:42:31.286Z,2.43
2019-03-10T04:44:59.875Z,2.57
2019-03-10T04:47:28.423Z,2.47
2019-03-10T04:49:57.015Z,2.57
2019-03-10T04:52:25.570Z,2.50
2019-03-10T04:55:07.854Z,2.47
2019-03-10T04:57:36.404Z,2.03
2019-03-10T05:00:07.514Z,2.97
2019-03-10T05:02:36.062Z,2.47
2019-03-10T05:05:05.886Z,2.43
2019-03-10T05:07:34.439Z,2.23
2019-03-10T05:10:03.202Z,2.40
2019-03-10T05:12:31.755Z,2.30
2019-03-10T05:15:01.803Z,2.37
2019-03-10T05:17:30.363Z,2.43
2019-03-10T05:19:58.944Z,2.60
2019-03-10T05:22:27.495Z,2.53
2019-03-10T05:24:56.085Z,2.20
2019-03-10T05:27:24.643Z,2.00
2019-03-10T05:29:53.230Z,2.17
2019-03-10T05:32:21.778Z,2.10
2019-03-10T05:34:50.366Z,2.20
2019-03-10T05:37:18.917Z,2.17
2019-03-10T05:39:47.515Z,2.30
2019-03-10T05:42:16.080Z,2.23
2019-03-10T05:44:44.663Z,2.33
2019-03-10T05:47:13.222Z,2.50
2019-03-10T05:49:41.779Z,2.20
2019-03-10T05:52:10.367Z,2.20
2019-03-10T05:54:38.927Z,1.97
2019-03-10T05:57:07.523Z,1.90
2019-03-10T05:59:36.092Z,2.03
2019-03-10T06:02:04.816Z,1.80
2019-03-10T06:04:33.383Z,1.73
2019-03-10T06:07:01.968Z,2.20
2019-03-10T06:09:30.602Z,2.07
2019-03-10T06:11:59.261Z,2.30
2019-03-10T06:14:27.813Z,1.97
2019-03-10T06:16:56.475Z,2.03
2019-03-10T06:19:25.031Z,1.93
2019-03-10T06:21:53.629Z,2.30
2019-03-10T06:24:22.197Z,2.40
2019-03-10T06:26:50.851Z,2.50
2019-03-10T06:29:19.477Z,2.40
2019-03-10T06:31:48.079Z,2.47
2019-03-10T06:34:16.639Z,2.63
2019-03-10T06:36:45.203Z,2.47
2019-03-10T06:39:13.803Z,2.70
2019-03-10T06:41:42.368Z,2.80
2019-03-10T06:44:10.959Z,2.53
2019-03-10T06:46:39.445Z,2.63
2019-03-10T06:49:07.965Z,2.43
2019-03-10T06:51:36.532Z,2.50
2019-03-10T06:54:05.234Z,2.67
2019-03-10T06:56:33.861Z,3.00
2019-03-10T06:59:02.466Z,2.80
2019-03-10T07:01:31.032Z,2.60
2019-03-10T07:03:59.643Z,3.00
2019-03-10T07:06:28.229Z,3.10
2019-03-10T07:08:56.905Z,2.80
2019-03-10T07:11:25.503Z,3.10
2019-03-10T07:13:54.059Z,3.10
2019-03-10T07:16:22.647Z,3.07
2019-03-10T07:18:51.198Z,3.27
2019-03-10T07:21:19.715Z,3.07
2019-03-10T07:23:48.276Z,2.93
2019-03-10T07:26:16.875Z,3.30
2019-03-10T07:28:47.079Z,3.60
2019-03-10T07:31:28.994Z,6.13
2019-03-10T07:33:59.203Z,3.33
2019-03-10T07:36:32.420Z,3.10
2019-03-10T07:39:02.632Z,3.40
2019-03-10T07:41:44.853Z,3.33
2019-03-10T07:44:29.943Z,3.10
2019-03-10T07:47:05.936Z,3.00
2019-03-10T07:49:42.139Z,3.00
2019-03-10T07:52:20.391Z,3.47
2019-03-10T07:54:50.122Z,2.90
2019-03-10T07:57:32.741Z,2.73
2019-03-10T08:00:11.939Z,3.00
2019-03-10T08:02:42.273Z,3.33
2019-03-10T08:05:15.503Z,3.63
2019-03-10T08:07:57.395Z,3.43
2019-03-10T08:10:27.611Z,2.90
2019-03-10T08:13:00.776Z,2.70
2019-03-10T08:15:31.014Z,3.57
2019-03-10T08:18:07.099Z,3.40
2019-03-10T08:20:53.893Z,3.47
2019-03-10T08:23:26.839Z,3.43
2019-03-10T08:26:03.131Z,4.13
2019-03-10T08:28:33.349Z,3.60
2019-03-10T08:31:03.585Z,3.20
2019-03-10T08:33:33.779Z,3.80
2019-03-10T08:36:04.029Z,3.53
2019-03-10T08:38:52.621Z,3.80
2019-03-10T08:41:28.725Z,3.90
2019-03-10T08:44:15.391Z,3.90
2019-03-10T08:49:19.459Z,3.83
2019-03-10T08:51:49.695Z,3.77
2019-03-10T08:54:19.905Z,3.73
2019-03-10T08:56:59.024Z,3.30
2019-03-10T08:59:34.987Z,3.77
2019-03-10T09:02:16.835Z,3.63
2019-03-10T09:05:04.611Z,2.90
2019-03-10T09:07:37.768Z,2.87
2019-03-10T09:10:13.963Z,2.97
2019-03-10T09:12:44.199Z,3.00
2019-03-10T09:15:17.183Z,3.20
2019-03-10T09:17:53.403Z,2.97
2019-03-10T09:20:32.541Z,2.77
2019-03-10T09:23:14.827Z,3.23
2019-03-10T09:25:45.029Z,2.90
2019-03-10T09:28:16.528Z,2.50
2019-03-10T09:30:52.499Z,2.90
2019-03-10T09:33:35.041Z,2.93
2019-03-10T09:36:14.274Z,3.00
2019-03-10T09:38:44.531Z,2.80
2019-03-10T09:41:29.891Z,3.50
2019-03-10T09:44:00.122Z,3.50
2019-03-10T09:46:30.401Z,3.13
2019-03-10T09:49:00.705Z,3.50
2019-03-10T09:51:30.895Z,3.10
2019-03-10T09:54:17.431Z,3.50
2019-03-10T09:56:50.584Z,2.80
2019-03-10T09:59:20.796Z,3.00
2019-03-10T10:02:08.641Z,2.80
2019-03-10T10:04:44.714Z,2.90
2019-03-10T10:07:20.545Z,3.30
2019-03-10T10:10:08.941Z,3.00
2019-03-10T10:12:41.979Z,3.03
2019-03-10T10:15:16.210Z,3.57
2019-03-10T10:17:49.583Z,3.60
2019-03-10T10:20:19.966Z,3.80
2019-03-10T10:22:50.203Z,3.60
2019-03-10T10:25:26.660Z,4.10
2019-03-10T10:28:13.755Z,3.50
2019-03-10T10:31:02.482Z,3.00
2019-03-10T10:33:32.791Z,3.10
2019-03-10T10:36:06.103Z,3.47
2019-03-10T10:38:37.757Z,2.90
2019-03-10T10:41:11.208Z,3.73
2019-03-10T10:43:44.367Z,3.60
2019-03-10T10:46:31.899Z,3.37
2019-03-10T10:49:04.182Z,3.77
2019-03-10T10:51:48.025Z,3.37
2019-03-10T10:54:28.718Z,3.13
2019-03-10T10:57:15.432Z,3.63
2019-03-10T11:00:02.366Z,3.10
2019-03-10T11:02:36.139Z,3.30
2019-03-10T11:05:08.312Z,3.47
2019-03-10T11:07:38.726Z,3.30
2019-03-10T11:10:11.811Z,3.40
2019-03-10T11:12:58.391Z,3.33
2019-03-10T11:15:31.385Z,3.60
2019-03-10T11:18:09.392Z,3.17
2019-03-10T11:20:36.504Z,3.10
2019-03-10T11:23:06.924Z,3.00
2019-03-10T11:25:37.279Z,3.60
2019-03-10T11:28:26.064Z,3.97
2019-03-10T11:31:05.558Z,3.90
2019-03-10T11:33:41.727Z,3.40
2019-03-10T11:36:12.035Z,3.73
2019-03-10T11:38:42.399Z,3.90
2019-03-10T11:41:33.821Z,3.33
2019-03-10T11:44:06.747Z,3.50
2019-03-10T11:46:39.888Z,4.20
2019-03-10T11:49:12.922Z,4.47
2019-03-10T11:51:46.232Z,4.40
2019-03-10T11:54:25.213Z,5.30
2019-03-10T11:56:58.843Z,5.30
2019-03-10T11:59:29.276Z,5.53
2019-03-10T12:02:16.643Z,5.40
2019-03-10T12:04:47.027Z,5.50
2019-03-10T12:07:17.233Z,5.00
2019-03-10T12:09:45.803Z,4.67
2019-03-10T12:12:14.407Z,4.70
2019-03-10T12:14:42.987Z,5.30
2019-03-10T12:17:11.544Z,4.43
2019-03-10T12:19:40.131Z,4.30
2019-03-10T12:22:08.818Z,3.93
2019-03-10T12:24:37.495Z,4.30
2019-03-10T12:27:06.175Z,4.10
2019-03-10T12:29:34.775Z,4.07
2019-03-10T12:32:03.413Z,3.00
2019-03-10T12:34:32.392Z,3.37
2019-03-10T12:37:01.065Z,3.50
2019-03-10T12:39:29.640Z,2.60
2019-03-10T12:41:58.986Z,3.13
2019-03-10T12:44:27.703Z,3.00
2019-03-10T12:46:56.355Z,2.87
2019-03-10T12:49:24.919Z,3.20
2019-03-10T12:51:53.669Z,2.90
2019-03-10T12:54:22.247Z,3.00
2019-03-10T12:56:50.911Z,2.80
2019-03-10T12:59:19.463Z,2.43
2019-03-10T13:01:48.058Z,3.00
2019-03-10T13:04:19.016Z,3.43
2019-03-10T13:06:46.865Z,3.67
2019-03-10T13:09:16.845Z,2.43
2019-03-10T13:11:45.435Z,2.60
2019-03-10T13:14:13.998Z,2.80
2019-03-10T13:16:42.587Z,2.40
2019-03-10T13:19:11.144Z,2.70
2019-03-10T13:21:39.921Z,3.53
2019-03-10T13:24:08.647Z,3.00
2019-03-10T13:26:37.237Z,3.17
2019-03-10T13:29:05.889Z,3.30
2019-03-10T13:31:34.496Z,3.50
2019-03-10T13:34:03.129Z,3.20
2019-03-10T13:36:31.873Z,3.20
2019-03-10T13:39:00.525Z,2.80
2019-03-10T13:41:29.314Z,2.60
2019-03-10T13:43:57.966Z,2.40
2019-03-10T13:46:26.571Z,2.40
2019-03-10T13:48:55.148Z,2.43
2019-03-10T13:51:23.966Z,2.20
2019-03-10T13:53:52.530Z,2.40
2019-03-10T13:56:21.202Z,2.10
2019-03-10T13:58:49.827Z,2.00
2019-03-10T14:01:18.638Z,1.85
2019-03-10T14:03:47.203Z,1.95
2019-03-10T14:06:15.866Z,1.87
2019-03-10T14:08:44.495Z,1.80
2019-03-10T14:11:13.058Z,2.22
2019-03-10T14:13:41.744Z,2.40
2019-03-10T14:16:10.314Z,2.47
2019-03-10T14:18:38.947Z,2.37
2019-03-10T14:21:07.551Z,2.70
2019-03-10T14:23:36.165Z,2.70
2019-03-10T14:26:04.891Z,2.30
2019-03-10T14:28:33.479Z,2.70
2019-03-10T14:31:02.119Z,2.50
2019-03-10T14:33:30.842Z,2.53
2019-03-10T14:35:59.403Z,2.70
2019-03-10T14:38:28.073Z,2.73
2019-03-10T14:40:58.200Z,3.40
2019-03-10T14:43:26.805Z,3.83
2019-03-10T14:45:55.369Z,4.10
2019-03-10T14:48:23.965Z,3.80
2019-03-10T14:50:52.589Z,2.77
2019-03-10T14:53:21.210Z,3.50
2019-03-10T14:55:49.852Z,2.87
2019-03-10T14:58:18.505Z,3.60
2019-03-10T15:00:47.067Z,3.40
2019-03-10T15:03:15.683Z,3.60
2019-03-10T15:05:44.237Z,3.60
2019-03-10T15:08:12.873Z,3.83
2019-03-10T15:10:41.493Z,3.53
2019-03-10T15:13:11.269Z,3.43
2019-03-10T15:15:40.083Z,2.97
2019-03-10T15:18:08.687Z,2.60
2019-03-10T15:20:37.264Z,2.30
2019-03-10T15:23:05.932Z,1.50
2019-03-10T15:25:34.570Z,1.47
2019-03-10T15:28:03.171Z,1.60
2019-03-10T15:30:31.804Z,1.40
2019-03-10T15:33:00.367Z,1.73
2019-03-10T15:35:28.969Z,1.57
2019-03-10T15:37:57.598Z,1.70
2019-03-10T15:40:26.206Z,1.50
2019-03-10T15:42:54.759Z,1.93
2019-03-10T15:45:23.433Z,1.90
2019-03-10T15:47:52.000Z,1.60
2019-03-10T15:50:32.071Z,1.60
2019-03-10T15:53:00.768Z,1.90
2019-03-10T15:55:29.568Z,2.07
2019-03-10T15:57:58.214Z,2.07
2019-03-10T16:00:27.748Z,1.63
2019-03-10T16:02:56.452Z,1.50
2019-03-10T16:05:25.633Z,1.57
2019-03-10T16:07:54.200Z,1.50
2019-03-10T16:10:22.804Z,0.93
2019-03-10T16:12:51.361Z,1.07
2019-03-10T16:15:30.329Z,1.30
2019-03-10T16:17:58.854Z,1.23
2019-03-10T16:20:27.528Z,1.30
2019-03-10T16:22:56.091Z,2.07
2019-03-10T16:25:24.712Z,1.77
2019-03-10T16:27:53.288Z,3.80
2019-03-10T16:30:23.244Z,2.00
2019-03-10T16:32:51.886Z,3.30
2019-03-10T16:35:22.725Z,3.07
2019-03-10T16:37:53.786Z,3.13
2019-03-10T16:40:22.559Z,2.00
2019-03-10T16:42:51.194Z,1.20
2019-03-10T16:45:24.049Z,1.30
2019-03-10T16:47:52.840Z,1.40
2019-03-10T16:50:25.417Z,1.30
2019-03-10T16:52:53.978Z,1.60
2019-03-10T16:55:22.750Z,1.63
2019-03-10T16:57:51.302Z,1.40
2019-03-10T17:00:21.498Z,1.20
2019-03-10T17:02:51.213Z,1.10
2019-03-10T17:05:23.911Z,1.30
2019-03-10T17:07:52.460Z,1.40
2019-03-10T17:10:44.958Z,1.50
2019-03-10T17:13:13.710Z,1.50
2019-03-10T17:15:42.225Z,1.67
2019-03-10T17:18:10.803Z,0.90
2019-03-10T17:20:39.418Z,1.03
2019-03-10T17:23:08.071Z,1.37
2019-03-10T17:25:36.661Z,1.60
2019-03-10T17:28:05.381Z,1.13
2019-03-10T17:30:33.994Z,2.07
2019-03-10T17:33:02.608Z,2.10
2019-03-10T17:35:31.138Z,1.50
2019-03-10T17:37:59.795Z,1.50
2019-03-10T17:40:28.357Z,2.10
2019-03-10T17:42:56.870Z,1.50
2019-03-10T17:45:26.465Z,1.80
2019-03-10T17:47:55.154Z,1.60
2019-03-10T17:50:23.782Z,1.70
2019-03-10T17:52:52.360Z,1.80
2019-03-10T17:55:22.822Z,1.70
2019-03-10T17:57:51.470Z,1.43
2019-03-10T18:00:22.706Z,1.77
2019-03-10T18:02:51.297Z,1.53
2019-03-10T18:05:19.854Z,1.90
2019-03-10T18:07:48.439Z,1.40
2019-03-10T18:10:18.143Z,1.53
2019-03-10T18:12:46.893Z,1.40
2019-03-10T18:15:16.884Z,1.30
2019-03-10T18:17:45.551Z,1.57
2019-03-10T18:20:19.245Z,1.53
2019-03-10T18:22:47.911Z,1.53
2019-03-10T18:25:16.735Z,1.30
2019-03-10T18:27:45.377Z,1.60
2019-03-10T18:30:22.241Z,1.30
2019-03-10T18:32:50.886Z,1.40
2019-03-10T18:35:20.570Z,1.10
2019-03-10T18:37:49.086Z,1.00
2019-03-10T18:40:21.729Z,1.03
2019-03-10T18:42:50.276Z,1.00
2019-03-10T18:45:19.881Z,0.90
2019-03-10T18:47:48.559Z,0.50
2019-03-10T18:50:19.750Z,1.07
2019-03-10T18:52:48.407Z,0.50
2019-03-10T18:55:18.010Z,0.67
2019-03-10T18:57:46.588Z,0.67
2019-03-10T19:00:23.142Z,0.80
2019-03-10T19:02:51.740Z,0.80
2019-03-10T19:07:45.782Z,0.97
2019-03-10T19:10:14.887Z,0.87
2019-03-10T19:12:43.446Z,0.60
2019-03-10T19:15:17.377Z,0.60
2019-03-10T19:17:45.943Z,0.60
2019-03-10T19:20:15.572Z,0.47
2019-03-10T19:22:44.279Z,0.53
2019-03-10T19:25:14.538Z,0.80
2019-03-10T19:27:43.212Z,0.70
2019-03-10T19:30:21.325Z,0.70
2019-03-10T19:32:49.971Z,0.50
2019-03-10T19:35:18.802Z,0.40
2019-03-10T19:37:47.410Z,0.63
2019-03-10T19:40:17.244Z,0.50
2019-03-10T19:42:45.960Z,0.60
2019-03-10T19:45:19.726Z,0.70
2019-03-10T19:47:48.290Z,0.77
2019-03-10T19:50:44.103Z,0.47
2019-03-10T19:53:12.672Z,0.40
2019-03-10T19:55:41.270Z,0.40
2019-03-10T19:58:09.833Z,0.30
2019-03-10T20:00:38.448Z,0.47
2019-03-10T20:03:09.531Z,0.30
2019-03-10T20:05:37.294Z,0.47
2019-03-10T20:08:05.847Z,0.53
2019-03-10T20:10:34.440Z,0.70
2019-03-10T20:13:02.998Z,0.60
2019-03-10T20:15:31.578Z,0.50
2019-03-10T20:18:00.160Z,0.30
2019-03-10T20:20:34.818Z,0.40
2019-03-10T20:23:03.505Z,0.50
2019-03-10T20:25:32.236Z,0.40
2019-03-10T20:28:00.862Z,0.90
2019-03-10T20:30:29.454Z,0.50
2019-03-10T20:32:58.142Z,0.50
2019-03-10T20:35:26.763Z,0.40
2019-03-10T20:37:55.308Z,0.50
2019-03-10T20:40:28.171Z,0.50
2019-03-10T20:42:56.734Z,0.50
2019-03-10T20:45:25.394Z,0.80
2019-03-10T20:47:56.476Z,0.27
2019-03-10T20:50:25.202Z,0.50
2019-03-10T20:52:53.758Z,0.37
2019-03-10T20:55:22.417Z,0.30
2019-03-10T20:57:50.970Z,0.30
2019-03-10T21:00:27.350Z,0.50
2019-03-10T21:02:55.908Z,0.63
2019-03-10T21:05:24.537Z,0.27
2019-03-10T21:07:53.100Z,0.40
2019-03-10T21:10:26.014Z,0.30
2019-03-10T21:12:54.502Z,0.10
2019-03-10T21:15:26.017Z,0.20
2019-03-10T21:17:54.087Z,0.30
2019-03-10T21:20:24.651Z,0.30
2019-03-10T21:22:53.298Z,0.43
2019-03-10T21:25:26.742Z,0.47
2019-03-10T21:27:55.397Z,0.30
2019-03-10T21:30:31.237Z,0.20
2019-03-10T21:32:59.898Z,0.30
2019-03-10T21:35:28.468Z,0.20
2019-03-10T21:37:57.046Z,0.40
2019-03-10T21:40:35.982Z,0.50
2019-03-10T21:43:04.624Z,0.40
2019-03-10T21:45:33.660Z,0.30
2019-03-10T21:48:02.298Z,0.50
2019-03-10T21:50:30.858Z,0.40
2019-03-10T21:52:59.452Z,0.30
2019-03-10T21:55:27.999Z,0.50
2019-03-10T21:57:56.588Z,0.60
2019-03-10T22:00:25.139Z,0.50
2019-03-10T22:02:53.806Z,0.60
2019-03-10T22:05:22.353Z,0.67
2019-03-10T22:07:51.007Z,0.70
2019-03-10T22:10:27.157Z,0.90
2019-03-10T22:12:50.630Z,0.80
2019-03-10T22:15:20.223Z,0.73
2019-03-10T22:17:48.810Z,0.80
2019-03-10T22:20:19.367Z,1.00
2019-03-10T22:22:49.589Z,1.17
2019-03-10T22:25:18.432Z,1.13
2019-03-10T22:27:47.087Z,1.10
2019-03-10T22:30:23.030Z,1.40
2019-03-10T22:32:51.609Z,1.40
2019-03-10T22:35:20.274Z,1.60
2019-03-10T22:37:48.775Z,1.67
2019-03-10T22:40:18.009Z,1.80
2019-03-10T22:42:46.627Z,1.57
2019-03-10T22:45:16.642Z,1.63
2019-03-10T22:47:45.271Z,1.60
2019-03-10T22:50:14.828Z,1.80
2019-03-10T22:52:43.910Z,2.07
2019-03-10T22:55:14.503Z,1.77
2019-03-10T22:57:43.122Z,1.80
2019-03-10T23:00:17.438Z,1.90
2019-03-10T23:02:45.982Z,2.00
2019-03-10T23:05:14.715Z,1.93
2019-03-10T23:07:43.259Z,2.43
2019-03-10T23:10:13.788Z,1.97
2019-03-10T23:12:42.399Z,2.03
2019-03-10T23:15:12.818Z,2.20
2019-03-10T23:17:41.366Z,2.50
2019-03-10T23:20:16.659Z,2.13
2019-03-10T23:22:45.408Z,2.57
2019-03-10T23:25:14.058Z,2.20
2019-03-10T23:27:42.611Z,2.20
2019-03-10T23:30:14.268Z,2.13
2019-03-10T23:32:42.884Z,2.30
2019-03-10T23:35:11.465Z,1.90
2019-03-10T23:37:40.010Z,1.90
2019-03-10T23:40:11.714Z,2.20
2019-03-10T23:42:40.250Z,2.10
2019-03-10T23:45:11.774Z,1.97
2019-03-10T23:47:40.318Z,1.97
2019-03-10T23:50:11.270Z,2.20
2019-03-10T23:52:39.825Z,2.03
2019-03-10T23:55:10.246Z,2.13
2019-03-10T23:57:38.724Z,2.40
